sensor_id;sensor_type;location;lat;lon;timestamp;temperature;humidity
60242;SHT30;46103;52.076;113.488;2023-05-27T00:00:23;11.70;51.65
60242;SHT30;46103;52.076;113.488;2023-05-27T00:03:31;11.83;51.51
60242;SHT30;46103;52.076;113.488;2023-05-27T00:06:39;11.85;51.27
60242;SHT30;46103;52.076;113.488;2023-05-27T00:09:47;11.83;51.03
60242;SHT30;46103;52.076;113.488;2023-05-27T00:12:54;11.55;51.59
60242;SHT30;46103;52.076;113.488;2023-05-27T00:15:59;11.65;51.45
60242;SHT30;46103;52.076;113.488;2023-05-27T00:19:03;11.63;51.37
60242;SHT30;46103;52.076;113.488;2023-05-27T00:22:07;11.57;51.44
60242;SHT30;46103;52.076;113.488;2023-05-27T00:25:12;11.54;51.55
60242;SHT30;46103;52.076;113.488;2023-05-27T00:28:16;11.59;51.37
60242;SHT30;46103;52.076;113.488;2023-05-27T00:31:19;12.04;50.57
60242;SHT30;46103;52.076;113.488;2023-05-27T00:34:24;12.45;49.38
60242;SHT30;46103;52.076;113.488;2023-05-27T00:37:28;12.69;48.64
60242;SHT30;46103;52.076;113.488;2023-05-27T00:40:34;12.69;48.64
60242;SHT30;46103;52.076;113.488;2023-05-27T00:43:39;13.23;47.31
60242;SHT30;46103;52.076;113.488;2023-05-27T00:46:47;13.26;47.25
60242;SHT30;46103;52.076;113.488;2023-05-27T00:49:51;13.81;46.01
60242;SHT30;46103;52.076;113.488;2023-05-27T00:52:56;13.90;45.52
60242;SHT30;46103;52.076;113.488;2023-05-27T00:56:01;14.01;45.24
60242;SHT30;46103;52.076;113.488;2023-05-27T00:59:05;13.81;45.29
60242;SHT30;46103;52.076;113.488;2023-05-27T01:02:09;13.57;45.99
60242;SHT30;46103;52.076;113.488;2023-05-27T01:05:15;13.96;45.08
60242;SHT30;46103;52.076;113.488;2023-05-27T01:08:37;13.95;45.20
60242;SHT30;46103;52.076;113.488;2023-05-27T01:12:10;14.24;44.24
60242;SHT30;46103;52.076;113.488;2023-05-27T01:15:12;14.01;44.72
60242;SHT30;46103;52.076;113.488;2023-05-27T01:18:16;13.43;45.86
60242;SHT30;46103;52.076;113.488;2023-05-27T01:21:21;13.43;46.08
60242;SHT30;46103;52.076;113.488;2023-05-27T01:24:27;13.50;45.86
60242;SHT30;46103;52.076;113.488;2023-05-27T01:27:31;13.19;46.45
60242;SHT30;46103;52.076;113.488;2023-05-27T01:30:35;13.09;46.66
60242;SHT30;46103;52.076;113.488;2023-05-27T01:33:42;13.04;46.77
60242;SHT30;46103;52.076;113.488;2023-05-27T01:36:54;13.16;46.35
60242;SHT30;46103;52.076;113.488;2023-05-27T01:40:00;13.09;46.34
60242;SHT30;46103;52.076;113.488;2023-05-27T01:43:12;13.19;46.08
60242;SHT30;46103;52.076;113.488;2023-05-27T01:46:17;13.57;45.42
60242;SHT30;46103;52.076;113.488;2023-05-27T01:49:21;13.61;45.36
60242;SHT30;46103;52.076;113.488;2023-05-27T01:52:28;13.78;44.99
60242;SHT30;46103;52.076;113.488;2023-05-27T01:55:37;13.24;45.28
60242;SHT30;46103;52.076;113.488;2023-05-27T01:58:44;13.21;45.05
60242;SHT30;46103;52.076;113.488;2023-05-27T02:01:50;13.54;44.53
60242;SHT30;46103;52.076;113.488;2023-05-27T02:04:58;13.99;44.41
60242;SHT30;46103;52.076;113.488;2023-05-27T02:08:05;14.05;44.20
60242;SHT30;46103;52.076;113.488;2023-05-27T02:11:13;14.24;42.97
60242;SHT30;46103;52.076;113.488;2023-05-27T02:14:21;14.52;42.60
60242;SHT30;46103;52.076;113.488;2023-05-27T02:17:27;14.68;42.19
60242;SHT30;46103;52.076;113.488;2023-05-27T02:20:36;14.52;42.55
60242;SHT30;46103;52.076;113.488;2023-05-27T02:23:43;14.34;42.95
60242;SHT30;46103;52.076;113.488;2023-05-27T02:26:50;14.51;42.67
60242;SHT30;46103;52.076;113.488;2023-05-27T02:29:56;14.33;41.90
60242;SHT30;46103;52.076;113.488;2023-05-27T02:33:08;14.42;41.63
60242;SHT30;46103;52.076;113.488;2023-05-27T02:36:13;14.58;41.69
60242;SHT30;46103;52.076;113.488;2023-05-27T02:39:19;14.78;41.35
60242;SHT30;46103;52.076;113.488;2023-05-27T02:42:26;15.12;40.45
60242;SHT30;46103;52.076;113.488;2023-05-27T02:45:32;15.12;40.46
60242;SHT30;46103;52.076;113.488;2023-05-27T02:48:37;15.36;40.07
60242;SHT30;46103;52.076;113.488;2023-05-27T02:51:44;16.18;37.75
60242;SHT30;46103;52.076;113.488;2023-05-27T02:54:50;16.52;36.43
60242;SHT30;46103;52.076;113.488;2023-05-27T02:57:56;16.68;35.88
60242;SHT30;46103;52.076;113.488;2023-05-27T03:01:02;16.64;35.47
60242;SHT30;46103;52.076;113.488;2023-05-27T03:04:08;16.77;35.76
60242;SHT30;46103;52.076;113.488;2023-05-27T03:07:14;16.55;35.99
60242;SHT30;46103;52.076;113.488;2023-05-27T03:10:21;16.45;36.52
60242;SHT30;46103;52.076;113.488;2023-05-27T03:13:28;16.29;37.00
60242;SHT30;46103;52.076;113.488;2023-05-27T03:16:35;16.05;37.22
60242;SHT30;46103;52.076;113.488;2023-05-27T03:19:42;15.65;37.83
60242;SHT30;46103;52.076;113.488;2023-05-27T03:22:49;15.57;37.95
60242;SHT30;46103;52.076;113.488;2023-05-27T03:25:55;14.95;39.33
60242;SHT30;46103;52.076;113.488;2023-05-27T03:29:02;15.29;39.03
60242;SHT30;46103;52.076;113.488;2023-05-27T03:32:08;15.42;38.59
60242;SHT30;46103;52.076;113.488;2023-05-27T03:35:15;15.39;38.89
60242;SHT30;46103;52.076;113.488;2023-05-27T03:38:23;15.34;39.33
60242;SHT30;46103;52.076;113.488;2023-05-27T03:41:34;15.58;38.64
60242;SHT30;46103;52.076;113.488;2023-05-27T03:44:43;15.78;38.39
60242;SHT30;46103;52.076;113.488;2023-05-27T03:47:52;16.22;38.02
60242;SHT30;46103;52.076;113.488;2023-05-27T03:51:00;16.08;38.36
60242;SHT30;46103;52.076;113.488;2023-05-27T03:54:08;15.94;38.08
60242;SHT30;46103;52.076;113.488;2023-05-27T03:57:14;15.92;38.41
60242;SHT30;46103;52.076;113.488;2023-05-27T04:00:21;16.16;37.32
60242;SHT30;46103;52.076;113.488;2023-05-27T04:03:27;16.12;37.46
60242;SHT30;46103;52.076;113.488;2023-05-27T04:06:50;16.36;37.06
60242;SHT30;46103;52.076;113.488;2023-05-27T04:09:59;16.05;36.82
60242;SHT30;46103;52.076;113.488;2023-05-27T04:13:07;15.88;37.51
60242;SHT30;46103;52.076;113.488;2023-05-27T04:16:16;15.75;37.68
60242;SHT30;46103;52.076;113.488;2023-05-27T04:19:25;15.65;38.25
60242;SHT30;46103;52.076;113.488;2023-05-27T04:22:31;15.60;38.43
60242;SHT30;46103;52.076;113.488;2023-05-27T04:25:40;15.72;38.26
60242;SHT30;46103;52.076;113.488;2023-05-27T04:28:55;16.19;36.75
60242;SHT30;46103;52.076;113.488;2023-05-27T04:32:05;16.02;37.24
60242;SHT30;46103;52.076;113.488;2023-05-27T04:35:10;16.19;36.80
60242;SHT30;46103;52.076;113.488;2023-05-27T04:38:15;16.67;36.04
60242;SHT30;46103;52.076;113.488;2023-05-27T04:41:28;16.55;35.72
60242;SHT30;46103;52.076;113.488;2023-05-27T04:45:05;16.46;35.54
60242;SHT30;46103;52.076;113.488;2023-05-27T04:48:12;16.47;35.67
60242;SHT30;46103;52.076;113.488;2023-05-27T04:51:15;16.33;36.09
60242;SHT30;46103;52.076;113.488;2023-05-27T04:54:22;16.32;36.19
60242;SHT30;46103;52.076;113.488;2023-05-27T04:57:26;16.87;35.38
60242;SHT30;46103;52.076;113.488;2023-05-27T05:00:31;17.08;34.35
60242;SHT30;46103;52.076;113.488;2023-05-27T05:04:04;17.05;34.11
60242;SHT30;46103;52.076;113.488;2023-05-27T05:07:36;17.01;34.57
60242;SHT30;46103;52.076;113.488;2023-05-27T05:10:54;17.12;34.40
60242;SHT30;46103;52.076;113.488;2023-05-27T05:13:59;17.40;33.85
60242;SHT30;46103;52.076;113.488;2023-05-27T05:17:04;17.94;32.72
60242;SHT30;46103;52.076;113.488;2023-05-27T05:20:13;18.57;31.09
60242;SHT30;46103;52.076;113.488;2023-05-27T05:23:23;18.63;31.19
60242;SHT30;46103;52.076;113.488;2023-05-27T05:26:29;19.08;30.69
60242;SHT30;46103;52.076;113.488;2023-05-27T05:29:36;19.21;30.56
60242;SHT30;46103;52.076;113.488;2023-05-27T05:32:45;19.35;30.11
60242;SHT30;46103;52.076;113.488;2023-05-27T05:35:56;18.89;28.16
60242;SHT30;46103;52.076;113.488;2023-05-27T05:39:13;19.08;29.30
60242;SHT30;46103;52.076;113.488;2023-05-27T05:42:27;18.25;29.61
60242;SHT30;46103;52.076;113.488;2023-05-27T05:45:46;17.93;30.29
60242;SHT30;46103;52.076;113.488;2023-05-27T05:48:55;17.62;31.26
60242;SHT30;46103;52.076;113.488;2023-05-27T05:52:12;17.31;31.90
60242;SHT30;46103;52.076;113.488;2023-05-27T05:55:21;16.64;34.15
60242;SHT30;46103;52.076;113.488;2023-05-27T05:58:29;16.05;34.66
60242;SHT30;46103;52.076;113.488;2023-05-27T06:01:38;16.08;35.19
60242;SHT30;46103;52.076;113.488;2023-05-27T06:04:47;15.99;35.88
60242;SHT30;46103;52.076;113.488;2023-05-27T06:07:54;16.32;35.72
60242;SHT30;46103;52.076;113.488;2023-05-27T06:11:02;16.73;35.32
60242;SHT30;46103;52.076;113.488;2023-05-27T06:14:09;17.76;34.03
60242;SHT30;46103;52.076;113.488;2023-05-27T06:17:17;18.90;32.06
60242;SHT30;46103;52.076;113.488;2023-05-27T06:20:24;19.24;31.15
60242;SHT30;46103;52.076;113.488;2023-05-27T06:23:31;19.18;31.49
60242;SHT30;46103;52.076;113.488;2023-05-27T06:26:48;20.00;30.03
60242;SHT30;46103;52.076;113.488;2023-05-27T06:29:58;21.00;29.01
60242;SHT30;46103;52.076;113.488;2023-05-27T06:33:10;21.57;28.06
60242;SHT30;46103;52.076;113.488;2023-05-27T06:36:21;21.66;27.97
60242;SHT30;46103;52.076;113.488;2023-05-27T06:39:28;21.69;28.00
60242;SHT30;46103;52.076;113.488;2023-05-27T06:42:33;21.66;27.80
60242;SHT30;46103;52.076;113.488;2023-05-27T06:46:07;21.07;27.98
60242;SHT30;46103;52.076;113.488;2023-05-27T06:49:37;21.11;27.77
60242;SHT30;46103;52.076;113.488;2023-05-27T06:52:44;20.66;27.78
60242;SHT30;46103;52.076;113.488;2023-05-27T06:56:11;20.25;28.38
60242;SHT30;46103;52.076;113.488;2023-05-27T06:59:47;20.32;28.56
60242;SHT30;46103;52.076;113.488;2023-05-27T07:02:52;21.34;27.71
60242;SHT30;46103;52.076;113.488;2023-05-27T07:05:58;22.43;26.59
60242;SHT30;46103;52.076;113.488;2023-05-27T07:09:12;24.02;24.49
60242;SHT30;46103;52.076;113.488;2023-05-27T07:12:20;25.97;22.76
60242;SHT30;46103;52.076;113.488;2023-05-27T07:15:31;27.47;21.09
60242;SHT30;46103;52.076;113.488;2023-05-27T07:18:35;26.16;22.10
60242;SHT30;46103;52.076;113.488;2023-05-27T07:21:41;25.04;23.23
60242;SHT30;46103;52.076;113.488;2023-05-27T07:24:52;24.08;23.48
60242;SHT30;46103;52.076;113.488;2023-05-27T07:28:03;24.29;23.92
60242;SHT30;46103;52.076;113.488;2023-05-27T07:31:18;25.10;23.13
60242;SHT30;46103;52.076;113.488;2023-05-27T07:34:33;27.21;21.52
60242;SHT30;46103;52.076;113.488;2023-05-27T07:37:46;28.79;20.26
60242;SHT30;46103;52.076;113.488;2023-05-27T07:40:54;29.73;19.24
60242;SHT30;46103;52.076;113.488;2023-05-27T07:44:02;29.84;18.91
60242;SHT30;46103;52.076;113.488;2023-05-27T07:47:10;30.22;18.39
60242;SHT30;46103;52.076;113.488;2023-05-27T07:50:22;31.11;17.57
60242;SHT30;46103;52.076;113.488;2023-05-27T07:53:37;30.30;17.72
60242;SHT30;46103;52.076;113.488;2023-05-27T07:56:44;29.23;18.11
60242;SHT30;46103;52.076;113.488;2023-05-27T07:59:52;29.15;17.79
60242;SHT30;46103;52.076;113.488;2023-05-27T08:03:16;28.47;17.92
60242;SHT30;46103;52.076;113.488;2023-05-27T08:06:53;27.38;18.80
60242;SHT30;46103;52.076;113.488;2023-05-27T08:10:07;28.30;18.65
60242;SHT30;46103;52.076;113.488;2023-05-27T08:13:30;27.75;19.31
60242;SHT30;46103;52.076;113.488;2023-05-27T08:16:59;28.28;19.32
60242;SHT30;46103;52.076;113.488;2023-05-27T08:20:24;26.45;21.20
60242;SHT30;46103;52.076;113.488;2023-05-27T08:23:46;25.28;22.09
60242;SHT30;46103;52.076;113.488;2023-05-27T08:27:14;24.77;22.61
60242;SHT30;46103;52.076;113.488;2023-05-27T08:30:37;25.73;22.18
60242;SHT30;46103;52.076;113.488;2023-05-27T08:33:52;26.55;21.46
60242;SHT30;46103;52.076;113.488;2023-05-27T08:37:00;28.05;20.23
60242;SHT30;46103;52.076;113.488;2023-05-27T08:40:15;29.65;18.99
60242;SHT30;46103;52.076;113.488;2023-05-27T08:43:25;29.61;18.38
60242;SHT30;46103;52.076;113.488;2023-05-27T08:46:32;29.02;18.78
60242;SHT30;46103;52.076;113.488;2023-05-27T08:49:41;27.04;20.29
60242;SHT30;46103;52.076;113.488;2023-05-27T08:52:47;26.93;20.68
60242;SHT30;46103;52.076;113.488;2023-05-27T08:55:54;27.45;19.56
60242;SHT30;46103;52.076;113.488;2023-05-27T08:59:02;28.69;18.39
60242;SHT30;46103;52.076;113.488;2023-05-27T09:02:12;30.30;17.32
60242;SHT30;46103;52.076;113.488;2023-05-27T09:05:17;30.50;17.09
60242;SHT30;46103;52.076;113.488;2023-05-27T09:08:20;31.36;16.47
60242;SHT30;46103;52.076;113.488;2023-05-27T09:11:27;32.17;16.33
60242;SHT30;46103;52.076;113.488;2023-05-27T09:14:33;33.40;15.44
60242;SHT30;46103;52.076;113.488;2023-05-27T09:17:42;33.58;15.40
60242;SHT30;46103;52.076;113.488;2023-05-27T09:20:47;33.76;15.06
60242;SHT30;46103;52.076;113.488;2023-05-27T09:23:55;33.83;15.27
60242;SHT30;46103;52.076;113.488;2023-05-27T09:27:01;33.83;14.91
60242;SHT30;46103;52.076;113.488;2023-05-27T09:30:07;32.68;15.69
60242;SHT30;46103;52.076;113.488;2023-05-27T09:33:11;31.86;15.95
60242;SHT30;46103;52.076;113.488;2023-05-27T09:36:20;29.17;17.60
60242;SHT30;46103;52.076;113.488;2023-05-27T09:39:26;29.84;17.43
60242;SHT30;46103;52.076;113.488;2023-05-27T09:42:47;32.03;16.14
60242;SHT30;46103;52.076;113.488;2023-05-27T09:46:02;33.51;15.16
60242;SHT30;46103;52.076;113.488;2023-05-27T09:49:09;34.19;14.88
60242;SHT30;46103;52.076;113.488;2023-05-27T09:52:13;33.71;14.86
60242;SHT30;46103;52.076;113.488;2023-05-27T09:55:23;33.41;15.02
60242;SHT30;46103;52.076;113.488;2023-05-27T09:58:31;33.18;15.27
60242;SHT30;46103;52.076;113.488;2023-05-27T10:01:40;33.73;14.95
60242;SHT30;46103;52.076;113.488;2023-05-27T10:04:49;32.70;15.51
60242;SHT30;46103;52.076;113.488;2023-05-27T10:07:56;32.82;15.46
60242;SHT30;46103;52.076;113.488;2023-05-27T10:11:19;33.20;15.13
60242;SHT30;46103;52.076;113.488;2023-05-27T10:14:26;33.73;14.80
60242;SHT30;46103;52.076;113.488;2023-05-27T10:17:49;33.47;14.24
60242;SHT30;46103;52.076;113.488;2023-05-27T10:20:53;33.96;14.01
60242;SHT30;46103;52.076;113.488;2023-05-27T10:24:00;34.35;13.79
60242;SHT30;46103;52.076;113.488;2023-05-27T10:27:08;34.92;13.56
60242;SHT30;46103;52.076;113.488;2023-05-27T10:30:15;35.05;13.49
60242;SHT30;46103;52.076;113.488;2023-05-27T10:33:52;34.96;13.60
60242;SHT30;46103;52.076;113.488;2023-05-27T10:37:01;34.68;13.65
60242;SHT30;46103;52.076;113.488;2023-05-27T10:40:07;31.73;15.07
60242;SHT30;46103;52.076;113.488;2023-05-27T10:43:20;28.99;16.65
60242;SHT30;46103;52.076;113.488;2023-05-27T10:46:41;28.05;17.42
60242;SHT30;46103;52.076;113.488;2023-05-27T10:49:50;29.82;16.49
60242;SHT30;46103;52.076;113.488;2023-05-27T10:52:59;29.81;16.41
60242;SHT30;46103;52.076;113.488;2023-05-27T10:56:09;31.15;15.72
60242;SHT30;46103;52.076;113.488;2023-05-27T10:59:22;28.71;17.21
60242;SHT30;46103;52.076;113.488;2023-05-27T11:02:31;26.62;18.68
60242;SHT30;46103;52.076;113.488;2023-05-27T11:05:44;25.38;19.69
60242;SHT30;46103;52.076;113.488;2023-05-27T11:08:52;24.88;20.33
60242;SHT30;46103;52.076;113.488;2023-05-27T11:12:01;26.38;19.23
60242;SHT30;46103;52.076;113.488;2023-05-27T11:15:11;28.00;18.11
60242;SHT30;46103;52.076;113.488;2023-05-27T11:18:18;29.02;17.42
60242;SHT30;46103;52.076;113.488;2023-05-27T11:21:24;30.15;16.73
60242;SHT30;46103;52.076;113.488;2023-05-27T11:24:29;30.88;16.34
60242;SHT30;46103;52.076;113.488;2023-05-27T11:27:37;31.41;16.17
60242;SHT30;46103;52.076;113.488;2023-05-27T11:30:43;31.43;16.05
60242;SHT30;46103;52.076;113.488;2023-05-27T11:33:54;31.49;16.02
60242;SHT30;46103;52.076;113.488;2023-05-27T11:37:01;31.56;16.00
60242;SHT30;46103;52.076;113.488;2023-05-27T11:40:12;31.49;16.09
60242;SHT30;46103;52.076;113.488;2023-05-27T11:43:21;31.43;16.17
60242;SHT30;46103;52.076;113.488;2023-05-27T11:46:39;31.21;16.21
60242;SHT30;46103;52.076;113.488;2023-05-27T11:49:43;30.80;16.53
60242;SHT30;46103;52.076;113.488;2023-05-27T11:52:53;30.30;16.93
60242;SHT30;46103;52.076;113.488;2023-05-27T11:55:59;29.71;17.30
60242;SHT30;46103;52.076;113.488;2023-05-27T11:59:05;29.03;17.99
60242;SHT30;46103;52.076;113.488;2023-05-27T12:02:11;28.00;18.54
60242;SHT30;46103;52.076;113.488;2023-05-27T12:05:17;26.51;19.86
60242;SHT30;46103;52.076;113.488;2023-05-27T12:08:25;24.63;21.58
60242;SHT30;46103;52.076;113.488;2023-05-27T12:11:29;23.70;23.08
60242;SHT30;46103;52.076;113.488;2023-05-27T12:14:33;23.36;23.58
60242;SHT30;46103;52.076;113.488;2023-05-27T12:17:36;22.58;24.30
60242;SHT30;46103;52.076;113.488;2023-05-27T12:20:41;21.57;25.36
60242;SHT30;46103;52.076;113.488;2023-05-27T12:23:46;20.61;26.41
60242;SHT30;46103;52.076;113.488;2023-05-27T12:26:50;19.80;27.65
60242;SHT30;46103;52.076;113.488;2023-05-27T12:29:55;19.11;28.40
60242;SHT30;46103;52.076;113.488;2023-05-27T12:33:04;18.49;28.75
60242;SHT30;46103;52.076;113.488;2023-05-27T12:36:14;17.98;29.63
60242;SHT30;46103;52.076;113.488;2023-05-27T12:39:21;17.62;30.16
60242;SHT30;46103;52.076;113.488;2023-05-27T12:42:25;17.21;31.18
60242;SHT30;46103;52.076;113.488;2023-05-27T12:45:31;16.87;31.87
60242;SHT30;46103;52.076;113.488;2023-05-27T12:48:34;16.61;33.72
60242;SHT30;46103;52.076;113.488;2023-05-27T12:51:39;16.36;32.32
60242;SHT30;46103;52.076;113.488;2023-05-27T12:54:43;16.06;32.85
60242;SHT30;46103;52.076;113.488;2023-05-27T12:57:49;15.84;32.92
60242;SHT30;46103;52.076;113.488;2023-05-27T13:00:57;15.64;33.43
60242;SHT30;46103;52.076;113.488;2023-05-27T13:04:01;15.36;34.29
60242;SHT30;46103;52.076;113.488;2023-05-27T13:07:09;14.95;35.13
60242;SHT30;46103;52.076;113.488;2023-05-27T13:10:12;14.65;35.44
60242;SHT30;46103;52.076;113.488;2023-05-27T13:13:17;14.37;34.82
60242;SHT30;46103;52.076;113.488;2023-05-27T13:16:22;14.29;33.64
60242;SHT30;46103;52.076;113.488;2023-05-27T13:19:26;14.27;34.02
60242;SHT30;46103;52.076;113.488;2023-05-27T13:22:30;14.13;35.06
60242;SHT30;46103;52.076;113.488;2023-05-27T13:25:34;13.93;36.48
60242;SHT30;46103;52.076;113.488;2023-05-27T13:28:38;13.58;37.16
60242;SHT30;46103;52.076;113.488;2023-05-27T13:31:42;13.24;37.84
60242;SHT30;46103;52.076;113.488;2023-05-27T13:34:49;12.99;37.89
60242;SHT30;46103;52.076;113.488;2023-05-27T13:37:54;12.86;38.14
60242;SHT30;46103;52.076;113.488;2023-05-27T13:40:59;12.69;38.60
60242;SHT30;46103;52.076;113.488;2023-05-27T13:44:05;12.55;39.01
60242;SHT30;46103;52.076;113.488;2023-05-27T13:47:09;12.44;39.07
60242;SHT30;46103;52.076;113.488;2023-05-27T13:50:13;12.25;39.60
60242;SHT30;46103;52.076;113.488;2023-05-27T13:53:17;12.04;40.37
60242;SHT30;46103;52.076;113.488;2023-05-27T13:56:22;11.94;40.27
60242;SHT30;46103;52.076;113.488;2023-05-27T13:59:26;11.85;40.55
60242;SHT30;46103;52.076;113.488;2023-05-27T14:02:30;11.78;40.61
60242;SHT30;46103;52.076;113.488;2023-05-27T14:05:35;11.68;40.53
60242;SHT30;46103;52.076;113.488;2023-05-27T14:08:39;11.65;40.94
60242;SHT30;46103;52.076;113.488;2023-05-27T14:11:45;11.45;40.19
60242;SHT30;46103;52.076;113.488;2023-05-27T14:15:04;11.20;40.43
60242;SHT30;46103;52.076;113.488;2023-05-27T14:18:10;11.04;40.56
60242;SHT30;46103;52.076;113.488;2023-05-27T14:21:19;10.99;40.72
60242;SHT30;46103;52.076;113.488;2023-05-27T14:35:31;10.93;41.71
60242;SHT30;46103;52.076;113.488;2023-05-27T14:38:38;10.89;42.06
60242;SHT30;46103;52.076;113.488;2023-05-27T14:41:41;10.84;41.94
60242;SHT30;46103;52.076;113.488;2023-05-27T14:44:46;10.84;42.01
60242;SHT30;46103;52.076;113.488;2023-05-27T14:47:50;10.73;42.14
60242;SHT30;46103;52.076;113.488;2023-05-27T14:50:54;10.63;42.24
60242;SHT30;46103;52.076;113.488;2023-05-27T14:53:58;10.53;42.68
60242;SHT30;46103;52.076;113.488;2023-05-27T14:57:12;10.50;42.70
60242;SHT30;46103;52.076;113.488;2023-05-27T15:00:18;10.46;42.93
60242;SHT30;46103;52.076;113.488;2023-05-27T15:03:22;10.42;43.14
60242;SHT30;46103;52.076;113.488;2023-05-27T15:06:31;10.28;44.22
60242;SHT30;46103;52.076;113.488;2023-05-27T15:09:37;10.25;43.91
60242;SHT30;46103;52.076;113.488;2023-05-27T15:12:45;10.15;43.69
60242;SHT30;46103;52.076;113.488;2023-05-27T15:16:15;10.02;43.80
60242;SHT30;46103;52.076;113.488;2023-05-27T15:19:35;9.90;44.35
60242;SHT30;46103;52.076;113.488;2023-05-27T15:22:39;9.74;44.50
60242;SHT30;46103;52.076;113.488;2023-05-27T15:25:44;9.63;44.88
60242;SHT30;46103;52.076;113.488;2023-05-27T15:28:48;9.47;44.57
60242;SHT30;46103;52.076;113.488;2023-05-27T15:31:52;9.34;44.96
60242;SHT30;46103;52.076;113.488;2023-05-27T15:34:56;9.18;45.27
60242;SHT30;46103;52.076;113.488;2023-05-27T15:38:00;9.08;45.50
60242;SHT30;46103;52.076;113.488;2023-05-27T15:41:04;9.01;45.69
60242;SHT30;46103;52.076;113.488;2023-05-27T15:44:08;8.88;45.88
60242;SHT30;46103;52.076;113.488;2023-05-27T15:47:12;8.76;46.16
60242;SHT30;46103;52.076;113.488;2023-05-27T15:50:15;8.66;46.33
60242;SHT30;46103;52.076;113.488;2023-05-27T15:53:18;8.54;46.72
60242;SHT30;46103;52.076;113.488;2023-05-27T15:56:22;8.43;47.01
60242;SHT30;46103;52.076;113.488;2023-05-27T15:59:25;8.32;47.37
60242;SHT30;46103;52.076;113.488;2023-05-27T16:02:29;8.29;48.26
60242;SHT30;46103;52.076;113.488;2023-05-27T16:05:33;8.33;48.32
60242;SHT30;46103;52.076;113.488;2023-05-27T16:08:37;8.36;48.09
60242;SHT30;46103;52.076;113.488;2023-05-27T16:11:41;8.36;48.41
60242;SHT30;46103;52.076;113.488;2023-05-27T16:14:44;8.26;48.60
60242;SHT30;46103;52.076;113.488;2023-05-27T16:17:48;8.19;48.86
60242;SHT30;46103;52.076;113.488;2023-05-27T16:20:51;8.15;48.90
60242;SHT30;46103;52.076;113.488;2023-05-27T16:23:55;8.15;48.64
60242;SHT30;46103;52.076;113.488;2023-05-27T16:27:08;8.09;48.40
60242;SHT30;46103;52.076;113.488;2023-05-27T16:30:11;8.04;48.89
60242;SHT30;46103;52.076;113.488;2023-05-27T16:33:15;7.98;49.20
60242;SHT30;46103;52.076;113.488;2023-05-27T16:36:19;7.88;49.50
60242;SHT30;46103;52.076;113.488;2023-05-27T16:39:22;7.88;49.95
60242;SHT30;46103;52.076;113.488;2023-05-27T16:42:26;7.85;49.89
60242;SHT30;46103;52.076;113.488;2023-05-27T16:45:30;7.83;50.27
60242;SHT30;46103;52.076;113.488;2023-05-27T16:48:33;7.75;49.67
60242;SHT30;46103;52.076;113.488;2023-05-27T16:51:36;7.66;50.74
60242;SHT30;46103;52.076;113.488;2023-05-27T16:54:39;7.60;50.17
60242;SHT30;46103;52.076;113.488;2023-05-27T16:57:43;7.52;50.46
60242;SHT30;46103;52.076;113.488;2023-05-27T17:00:55;7.43;50.49
60242;SHT30;46103;52.076;113.488;2023-05-27T17:04:02;7.33;51.60
60242;SHT30;46103;52.076;113.488;2023-05-27T17:07:06;7.26;51.26
60242;SHT30;46103;52.076;113.488;2023-05-27T17:10:13;7.26;51.41
60242;SHT30;46103;52.076;113.488;2023-05-27T17:13:16;7.18;50.84
60242;SHT30;46103;52.076;113.488;2023-05-27T17:16:21;7.14;51.67
60242;SHT30;46103;52.076;113.488;2023-05-27T17:19:24;7.09;51.84
60242;SHT30;46103;52.076;113.488;2023-05-27T17:22:28;7.05;51.98
60242;SHT30;46103;52.076;113.488;2023-05-27T17:25:31;7.02;51.92
60242;SHT30;46103;52.076;113.488;2023-05-27T17:28:35;6.85;52.23
60242;SHT30;46103;52.076;113.488;2023-05-27T17:31:39;6.70;52.74
60242;SHT30;46103;52.076;113.488;2023-05-27T17:34:43;6.64;53.03
60242;SHT30;46103;52.076;113.488;2023-05-27T17:37:46;6.61;52.74
60242;SHT30;46103;52.076;113.488;2023-05-27T17:40:49;6.58;53.14
60242;SHT30;46103;52.076;113.488;2023-05-27T17:43:53;6.61;53.18
60242;SHT30;46103;52.076;113.488;2023-05-27T17:46:56;6.57;53.34
60242;SHT30;46103;52.076;113.488;2023-05-27T17:50:00;6.57;53.30
60242;SHT30;46103;52.076;113.488;2023-05-27T17:53:04;6.56;53.39
60242;SHT30;46103;52.076;113.488;2023-05-27T17:56:07;6.53;53.64
60242;SHT30;46103;52.076;113.488;2023-05-27T17:59:11;6.42;53.79
60242;SHT30;46103;52.076;113.488;2023-05-27T18:02:16;6.18;54.44
60242;SHT30;46103;52.076;113.488;2023-05-27T18:05:21;6.08;54.81
60242;SHT30;46103;52.076;113.488;2023-05-27T18:08:25;5.99;55.04
60242;SHT30;46103;52.076;113.488;2023-05-27T18:11:28;5.93;54.98
60242;SHT30;46103;52.076;113.488;2023-05-27T18:14:32;5.90;55.04
60242;SHT30;46103;52.076;113.488;2023-05-27T18:17:36;5.85;55.24
60242;SHT30;46103;52.076;113.488;2023-05-27T18:20:40;5.91;55.54
60242;SHT30;46103;52.076;113.488;2023-05-27T18:23:44;5.83;56.13
60242;SHT30;46103;52.076;113.488;2023-05-27T18:26:47;5.74;56.25
60242;SHT30;46103;52.076;113.488;2023-05-27T18:29:51;5.66;56.73
60242;SHT30;46103;52.076;113.488;2023-05-27T18:32:57;5.66;56.89
60242;SHT30;46103;52.076;113.488;2023-05-27T18:36:02;5.58;56.92
60242;SHT30;46103;52.076;113.488;2023-05-27T18:39:06;5.53;56.70
60242;SHT30;46103;52.076;113.488;2023-05-27T18:42:10;5.47;57.06
60242;SHT30;46103;52.076;113.488;2023-05-27T18:45:14;5.43;57.15
60242;SHT30;46103;52.076;113.488;2023-05-27T18:48:19;5.30;58.04
60242;SHT30;46103;52.076;113.488;2023-05-27T18:51:23;5.30;58.16
60242;SHT30;46103;52.076;113.488;2023-05-27T18:54:27;5.11;59.39
60242;SHT30;46103;52.076;113.488;2023-05-27T18:57:30;5.05;59.24
60242;SHT30;46103;52.076;113.488;2023-05-27T19:00:34;5.04;59.00
60242;SHT30;46103;52.076;113.488;2023-05-27T19:03:38;4.96;59.30
60242;SHT30;46103;52.076;113.488;2023-05-27T19:06:42;4.96;59.03
60242;SHT30;46103;52.076;113.488;2023-05-27T19:09:46;4.99;58.88
60242;SHT30;46103;52.076;113.488;2023-05-27T19:12:50;5.01;58.65
60242;SHT30;46103;52.076;113.488;2023-05-27T19:15:53;4.98;58.39
60242;SHT30;46103;52.076;113.488;2023-05-27T19:18:58;4.93;58.48
60242;SHT30;46103;52.076;113.488;2023-05-27T19:22:02;4.88;58.47
60242;SHT30;46103;52.076;113.488;2023-05-27T19:25:07;4.87;58.95